Time;durP1;ratioP1;P1;durP2;ratioP2;P2;SDS_P1;SDS_P2;PMS_P1;PMS_P2;Temp;Humidity;BMP_temperature;BMP_pressure;BME280_temperature;BME280_humidity;BME280_pressure;Samples;Min_cycle;Max_cycle;Signal;HPM_P1;HPM_P2
2021/10/01 00:00:32;;;;;;;3.08;1.48;;;10.70;99.90;;;;;;5051280;28;20075;-49
2021/10/01 00:02:58;;;;;;;5.43;1.67;;;10.70;99.90;;;;;;5066427;28;20032;-46
2021/10/01 00:05:24;;;;;;;3.90;1.60;;;10.70;99.90;;;;;;5067984;28;20029;-47
2021/10/01 00:07:51;;;;;;;4.47;1.60;;;10.60;99.90;;;;;;5054651;28;20024;-45
2021/10/01 00:10:17;;;;;;;5.78;1.30;;;10.60;99.90;;;;;;5064348;28;20090;-46
2021/10/01 00:12:42;;;;;;;5.72;1.65;;;10.60;99.90;;;;;;5071577;28;20033;-46
2021/10/01 00:15:09;;;;;;;3.05;1.45;;;10.60;99.90;;;;;;5053936;28;20036;-45
2021/10/01 00:17:35;;;;;;;3.72;1.40;;;10.60;99.90;;;;;;5066492;28;20028;-46
2021/10/01 00:20:00;;;;;;;5.05;1.60;;;10.60;99.90;;;;;;5071684;28;20043;-46
2021/10/01 00:22:26;;;;;;;5.45;1.63;;;10.50;99.90;;;;;;5071468;28;20498;-48
2021/10/01 00:24:51;;;;;;;6.30;1.98;;;10.50;99.90;;;;;;5070072;28;20409;-46
2021/10/01 00:27:18;;;;;;;9.30;1.88;;;10.50;99.90;;;;;;5070583;28;20509;-48
2021/10/01 00:29:44;;;;;;;2.92;1.30;;;10.50;99.90;;;;;;5071306;28;20020;-47
2021/10/01 00:32:10;;;;;;;5.53;1.25;;;10.50;99.90;;;;;;5069832;28;20043;-47
2021/10/01 00:34:36;;;;;;;6.72;1.50;;;10.40;99.90;;;;;;5071226;28;20111;-46
2021/10/01 00:37:02;;;;;;;5.35;1.70;;;10.40;99.90;;;;;;5070742;28;20040;-47
2021/10/01 00:39:27;;;;;;;4.13;1.50;;;10.30;99.90;;;;;;5062626;28;20339;-47
2021/10/01 00:41:53;;;;;;;3.72;1.25;;;10.30;99.90;;;;;;5058578;28;20069;-47
2021/10/01 00:44:18;;;;;;;4.25;1.80;;;10.30;99.90;;;;;;5069593;28;20029;-48
2021/10/01 00:46:44;;;;;;;6.38;1.75;;;10.30;99.90;;;;;;5052495;28;20486;-48
2021/10/01 00:49:10;;;;;;;7.15;1.85;;;10.30;99.90;;;;;;5054391;28;20032;-47
2021/10/01 00:51:39;;;;;;;7.05;1.90;;;10.30;99.90;;;;;;5066526;28;20032;-47
2021/10/01 00:54:04;;;;;;;5.78;1.55;;;10.30;99.90;;;;;;5055941;28;20017;-48
2021/10/01 00:56:30;;;;;;;5.55;1.58;;;10.20;99.90;;;;;;5065234;28;20145;-47
2021/10/01 00:58:55;;;;;;;4.68;1.38;;;10.20;99.90;;;;;;5060826;28;20028;-47
2021/10/01 01:01:20;;;;;;;5.70;1.88;;;10.20;99.90;;;;;;5062823;28;20024;-47
2021/10/01 01:03:56;;;;;;;4.25;1.20;;;10.20;99.90;;;;;;5070841;28;20025;-47
2021/10/01 01:06:34;;;;;;;5.72;2.17;;;10.20;99.90;;;;;;5052569;28;20021;-47
2021/10/01 01:09:20;;;;;;;6.93;1.48;;;10.10;99.90;;;;;;5069043;28;20036;-47
2021/10/01 01:11:52;;;;;;;5.95;1.63;;;10.10;99.90;;;;;;5070762;28;20024;-46
2021/10/01 01:14:38;;;;;;;5.60;1.75;;;10.10;99.90;;;;;;5052257;28;20469;-46
2021/10/01 01:17:06;;;;;;;4.20;1.45;;;10.10;99.90;;;;;;5067822;28;20035;-46
2021/10/01 01:19:57;;;;;;;5.30;1.48;;;10.10;99.90;;;;;;5052338;28;20079;-47
2021/10/01 01:22:48;;;;;;;9.35;1.90;;;10.10;99.90;;;;;;5030419;28;20025;-49
2021/10/01 01:25:36;;;;;;;1.92;1.00;;;10.10;99.90;;;;;;5050667;28;20511;-47
2021/10/01 01:28:32;;;;;;;3.97;1.30;;;10.20;99.90;;;;;;5049808;28;20384;-49
2021/10/01 01:31:14;;;;;;;3.70;1.40;;;10.20;99.90;;;;;;5050121;28;20024;-48
2021/10/01 01:33:42;;;;;;;3.85;1.33;;;10.20;99.90;;;;;;5054832;28;20021;-46
2021/10/01 01:36:10;;;;;;;4.55;1.70;;;10.10;99.90;;;;;;5069703;28;20517;-47
2021/10/01 01:38:41;;;;;;;7.20;1.67;;;10.10;99.90;;;;;;5069577;28;20020;-47
2021/10/01 01:41:09;;;;;;;5.15;1.67;;;10.10;99.90;;;;;;5069982;28;20024;-47
2021/10/01 01:43:37;;;;;;;3.60;1.40;;;10.00;99.90;;;;;;5069921;28;20032;-47
2021/10/01 01:46:03;;;;;;;3.85;1.42;;;10.00;99.90;;;;;;5069655;28;20017;-49
2021/10/01 01:48:31;;;;;;;2.83;1.40;;;10.00;99.90;;;;;;5055585;28;20040;-47
2021/10/01 01:50:58;;;;;;;6.18;1.20;;;10.10;99.90;;;;;;5061397;28;20036;-46
2021/10/01 01:53:25;;;;;;;3.05;1.35;;;10.00;99.90;;;;;;5069729;28;20024;-49
2021/10/01 01:55:51;;;;;;;5.35;1.60;;;10.10;99.90;;;;;;5069697;28;20107;-46
2021/10/01 01:58:17;;;;;;;7.82;1.85;;;10.10;99.90;;;;;;5068855;28;20099;-48
2021/10/01 02:00:44;;;;;;;4.75;1.48;;;10.10;99.90;;;;;;5068321;28;20028;-46
2021/10/01 02:03:11;;;;;;;3.55;1.55;;;10.00;99.90;;;;;;5069166;28;20040;-47
2021/10/01 02:05:37;;;;;;;4.30;1.70;;;10.00;99.90;;;;;;5069696;28;20707;-46
2021/10/01 02:08:03;;;;;;;9.18;1.70;;;10.00;99.90;;;;;;5068826;28;20025;-46
2021/10/01 02:10:31;;;;;;;2.97;1.33;;;10.00;99.90;;;;;;5069823;28;20391;-47
2021/10/01 02:13:00;;;;;;;3.72;1.63;;;9.90;99.90;;;;;;5069656;28;20044;-47
2021/10/01 02:15:30;;;;;;;4.95;1.60;;;10.00;99.90;;;;;;5069388;28;20111;-46
2021/10/01 02:17:58;;;;;;;2.50;1.45;;;9.90;99.90;;;;;;5054548;28;20050;-49
2021/10/01 02:20:25;;;;;;;4.82;1.83;;;10.00;99.90;;;;;;5061825;28;20062;-47
2021/10/01 02:22:51;;;;;;;3.97;1.80;;;10.00;99.90;;;;;;5057660;28;20021;-47
2021/10/01 02:28:06;;;;;;;3.58;1.58;;;9.90;99.90;;;;;;5068640;28;20094;-47
2021/10/01 02:30:35;;;;;;;4.82;1.80;;;9.90;99.90;;;;;;5068460;28;20024;-47
2021/10/01 02:33:05;;;;;;;4.25;1.48;;;9.80;99.90;;;;;;5058758;28;20078;-50
2021/10/01 02:35:30;;;;;;;3.92;1.83;;;9.90;99.90;;;;;;5063989;28;20021;-48
2021/10/01 02:37:56;;;;;;;5.15;1.70;;;9.90;99.90;;;;;;5050440;28;20132;-48
2021/10/01 02:40:22;;;;;;;5.68;1.45;;;9.90;99.90;;;;;;5068577;28;20078;-48
2021/10/01 02:42:47;;;;;;;3.63;1.45;;;9.90;99.90;;;;;;5068776;28;20433;-48
2021/10/01 02:45:13;;;;;;;4.82;1.60;;;9.90;99.90;;;;;;5068787;28;20359;-47
2021/10/01 02:47:40;;;;;;;7.10;1.50;;;9.90;99.90;;;;;;5057699;28;20025;-49
2021/10/01 02:50:17;;;;;;;4.80;1.95;;;9.80;99.90;;;;;;5056660;28;20031;-47
2021/10/01 02:53:12;;;;;;;4.93;1.60;;;9.90;99.90;;;;;;5042342;28;20279;-48
2021/10/01 02:55:46;;;;;;;4.22;1.40;;;9.90;99.90;;;;;;5058568;28;20028;-47
2021/10/01 02:58:37;;;;;;;3.97;1.40;;;9.90;99.90;;;;;;5051689;28;20021;-48
2021/10/01 03:01:07;;;;;;;3.65;1.70;;;10.00;99.90;;;;;;5034812;28;20065;-48
2021/10/01 03:03:43;;;;;;;2.40;1.10;;;10.00;99.90;;;;;;5046309;28;20029;-47
2021/10/01 03:06:11;;;;;;;10.00;1.95;;;10.00;99.90;;;;;;5048824;28;20041;-48
2021/10/01 03:08:38;;;;;;;7.47;1.92;;;10.00;99.90;;;;;;5048096;28;20036;-48
2021/10/01 03:11:10;;;;;;;6.57;2.05;;;10.00;99.90;;;;;;5048548;28;20021;-49
2021/10/01 03:13:39;;;;;;;4.10;2.10;;;10.00;99.90;;;;;;5048098;28;20433;-47
2021/10/01 03:16:06;;;;;;;6.70;1.77;;;10.00;99.90;;;;;;5046254;28;20023;-49
2021/10/01 03:18:33;;;;;;;6.45;1.63;;;10.00;99.90;;;;;;5051628;28;20063;-49
2021/10/01 03:21:02;;;;;;;8.30;2.25;;;10.00;99.90;;;;;;5067198;28;20055;-48
2021/10/01 03:23:27;;;;;;;4.97;1.73;;;10.00;99.90;;;;;;5068633;28;20067;-47
2021/10/01 03:25:53;;;;;;;4.90;1.50;;;10.00;99.90;;;;;;5068690;28;20426;-47
2021/10/01 03:28:19;;;;;;;8.32;1.85;;;10.10;99.90;;;;;;5067642;28;20433;-47
2021/10/01 03:30:46;;;;;;;7.75;2.17;;;10.10;99.90;;;;;;5068283;28;20024;-47
2021/10/01 03:33:12;;;;;;;7.05;1.60;;;10.00;99.90;;;;;;5068260;28;20025;-47
2021/10/01 03:35:42;;;;;;;2.65;1.38;;;10.10;99.90;;;;;;5068076;28;20032;-46
2021/10/01 03:38:10;;;;;;;5.75;1.35;;;10.00;99.90;;;;;;5036693;28;20029;-51
2021/10/01 03:40:35;;;;;;;8.50;1.70;;;10.10;99.90;;;;;;5042493;28;20074;-47
2021/10/01 03:43:01;;;;;;;3.22;1.50;;;10.10;99.90;;;;;;5051361;28;20049;-46
2021/10/01 03:45:27;;;;;;;4.30;1.70;;;10.00;99.90;;;;;;5052319;28;20036;-48
2021/10/01 03:47:53;;;;;;;3.63;1.38;;;10.00;99.90;;;;;;5043244;28;20439;-47
2021/10/01 03:50:18;;;;;;;4.00;1.40;;;10.00;99.90;;;;;;5061994;28;20041;-49
2021/10/01 03:52:44;;;;;;;3.15;1.50;;;10.00;99.90;;;;;;5052180;28;20167;-47
2021/10/01 03:55:11;;;;;;;5.28;1.65;;;10.00;99.90;;;;;;5052007;28;20487;-48
2021/10/01 03:57:37;;;;;;;5.30;1.73;;;10.00;99.90;;;;;;5048120;28;20017;-47
2021/10/01 04:00:05;;;;;;;11.68;2.35;;;10.10;99.90;;;;;;5058586;28;20097;-47
2021/10/01 04:02:31;;;;;;;4.93;1.83;;;10.10;99.90;;;;;;5052288;28;20386;-47
2021/10/01 04:04:56;;;;;;;4.13;1.55;;;10.10;99.90;;;;;;5051617;28;20025;-47
2021/10/01 04:07:22;;;;;;;5.35;1.67;;;10.20;99.90;;;;;;5048856;28;20110;-48
2021/10/01 04:09:48;;;;;;;2.97;1.38;;;10.20;99.90;;;;;;5057723;28;20037;-47
2021/10/01 04:12:14;;;;;;;4.40;1.30;;;10.30;99.90;;;;;;5042481;28;20490;-48
2021/10/01 04:14:39;;;;;;;3.72;1.38;;;10.30;99.90;;;;;;5035478;28;20033;-47
2021/10/01 04:17:05;;;;;;;3.47;1.45;;;10.30;99.90;;;;;;5045703;28;20028;-48
2021/10/01 04:19:31;;;;;;;3.97;1.55;;;10.30;99.90;;;;;;5040750;28;20025;-47
2021/10/01 04:21:56;;;;;;;4.15;1.58;;;10.20;99.90;;;;;;5042133;28;20013;-48
2021/10/01 04:24:22;;;;;;;6.82;1.30;;;10.20;99.90;;;;;;5039221;28;20036;-47
2021/10/01 04:26:47;;;;;;;3.85;1.30;;;10.20;99.90;;;;;;5040653;28;20568;-49
2021/10/01 04:29:13;;;;;;;3.63;1.83;;;10.20;99.90;;;;;;5049037;28;20045;-48
2021/10/01 04:31:38;;;;;;;3.95;1.40;;;10.20;99.90;;;;;;5040272;28;20071;-48
2021/10/01 04:34:04;;;;;;;5.75;1.60;;;10.20;99.90;;;;;;5048225;28;20020;-47
2021/10/01 04:36:32;;;;;;;7.05;1.85;;;10.10;99.90;;;;;;5040103;28;20549;-48
2021/10/01 04:38:58;;;;;;;3.40;1.55;;;10.10;99.90;;;;;;5041255;28;20372;-47
2021/10/01 04:41:23;;;;;;;3.97;1.50;;;10.00;99.90;;;;;;5040038;28;20036;-48
2021/10/01 04:43:49;;;;;;;2.65;1.48;;;10.00;99.90;;;;;;5040260;28;20108;-48
2021/10/01 04:46:14;;;;;;;3.35;1.40;;;10.00;99.90;;;;;;5041551;28;20063;-47
2021/10/01 04:48:40;;;;;;;8.82;1.70;;;9.90;99.90;;;;;;5046191;28;20049;-48
2021/10/01 04:51:05;;;;;;;2.47;1.40;;;9.90;99.90;;;;;;5043223;28;20018;-49
2021/10/01 04:53:31;;;;;;;4.53;1.48;;;9.80;99.90;;;;;;5037718;28;20021;-48
2021/10/01 04:55:56;;;;;;;2.78;1.35;;;9.80;99.90;;;;;;5040691;28;20104;-48
2021/10/01 04:58:22;;;;;;;8.93;1.90;;;9.80;99.90;;;;;;5038411;28;20447;-47
2021/10/01 05:00:47;;;;;;;5.07;1.77;;;9.80;99.90;;;;;;5040004;28;20025;-47
2021/10/01 05:03:13;;;;;;;3.50;1.50;;;9.80;99.90;;;;;;5040994;28;20035;-47
2021/10/01 05:05:38;;;;;;;5.30;1.58;;;9.80;99.90;;;;;;5039404;28;20030;-47
2021/10/01 05:08:04;;;;;;;2.97;1.33;;;9.80;99.90;;;;;;5039852;28;20536;-46
2021/10/01 05:10:30;;;;;;;3.45;1.05;;;9.80;99.90;;;;;;5039196;28;20077;-47
2021/10/01 05:12:56;;;;;;;4.55;2.03;;;9.80;99.90;;;;;;5038932;28;20365;-48
2021/10/01 05:15:22;;;;;;;2.28;1.40;;;9.70;99.90;;;;;;5040678;28;20079;-47
2021/10/01 05:17:49;;;;;;;4.45;1.55;;;9.70;99.90;;;;;;5040078;28;20173;-46
2021/10/01 05:20:15;;;;;;;6.43;1.48;;;9.70;99.90;;;;;;5047757;28;20014;-47
2021/10/01 05:22:40;;;;;;;4.47;1.08;;;9.70;99.90;;;;;;5039375;28;20018;-47
2021/10/01 05:25:07;;;;;;;4.78;1.20;;;9.70;99.90;;;;;;5040032;28;20021;-47
2021/10/01 05:27:33;;;;;;;4.47;1.58;;;9.70;99.90;;;;;;5040189;28;20101;-48
2021/10/01 05:29:59;;;;;;;8.32;1.90;;;9.60;99.90;;;;;;5039716;28;20032;-50
2021/10/01 05:32:25;;;;;;;4.38;2.15;;;9.60;99.90;;;;;;5051045;28;20052;-46
2021/10/01 05:34:51;;;;;;;2.35;1.42;;;9.60;99.90;;;;;;5054156;28;20593;-47
2021/10/01 05:37:18;;;;;;;3.05;1.50;;;9.60;99.90;;;;;;5051287;28;20287;-47
2021/10/01 05:39:43;;;;;;;3.38;1.42;;;9.60;99.90;;;;;;5050687;28;20021;-47
2021/10/01 05:42:09;;;;;;;6.53;1.95;;;9.60;99.90;;;;;;5043332;28;20029;-48
2021/10/01 05:44:34;;;;;;;3.83;1.40;;;9.60;99.90;;;;;;5046537;28;20021;-47
2021/10/01 05:47:02;;;;;;;6.50;1.60;;;9.60;99.90;;;;;;5046660;28;20085;-49
2021/10/01 05:49:37;;;;;;;5.28;1.58;;;9.60;99.90;;;;;;5042689;28;20022;-49
2021/10/01 05:54:39;;;;;;;4.43;1.90;;;9.60;99.90;;;;;;5049503;28;20040;-46
2021/10/01 05:57:08;;;;;;;2.45;1.27;;;9.60;99.90;;;;;;5043476;28;20021;-47
2021/10/01 05:59:33;;;;;;;3.42;1.40;;;9.60;99.90;;;;;;5048319;28;20394;-47
2021/10/01 06:01:59;;;;;;;4.55;1.73;;;9.70;99.90;;;;;;5068226;28;20024;-46
2021/10/01 06:04:24;;;;;;;2.38;1.23;;;9.70;99.90;;;;;;5055034;28;20017;-47
2021/10/01 06:06:50;;;;;;;9.80;1.70;;;9.70;99.90;;;;;;5047816;28;20032;-50
2021/10/01 06:09:18;;;;;;;7.00;2.28;;;9.80;99.90;;;;;;5049241;28;20025;-50
2021/10/01 06:11:45;;;;;;;6.40;1.90;;;9.80;99.90;;;;;;5041600;28;20025;-50
2021/10/01 06:14:11;;;;;;;2.92;1.90;;;9.80;99.90;;;;;;5039467;28;20033;-48
2021/10/01 06:16:36;;;;;;;4.95;1.50;;;9.90;99.90;;;;;;5037547;28;20017;-49
2021/10/01 06:19:03;;;;;;;3.05;1.23;;;9.90;99.90;;;;;;5038948;28;20021;-47
2021/10/01 06:21:29;;;;;;;6.43;1.65;;;10.00;99.90;;;;;;5038922;28;20028;-48
2021/10/01 06:23:54;;;;;;;5.07;1.95;;;10.00;99.90;;;;;;5037686;28;20041;-48
2021/10/01 06:26:20;;;;;;;8.43;2.28;;;10.10;99.90;;;;;;5038265;28;20078;-47
2021/10/01 06:28:46;;;;;;;10.38;2.10;;;10.10;99.90;;;;;;5038094;28;20021;-48
2021/10/01 06:31:11;;;;;;;5.10;1.73;;;10.10;99.90;;;;;;5038124;28;20040;-47
2021/10/01 06:33:37;;;;;;;4.47;1.25;;;10.20;99.90;;;;;;5037788;28;20022;-47
2021/10/01 06:36:03;;;;;;;6.40;1.98;;;10.20;99.90;;;;;;5039722;28;20033;-48
2021/10/01 06:38:30;;;;;;;7.80;1.80;;;10.30;99.90;;;;;;5043702;28;20482;-48
2021/10/01 06:40:57;;;;;;;6.18;1.63;;;10.30;99.90;;;;;;5042487;28;20105;-47
2021/10/01 06:43:23;;;;;;;5.05;1.52;;;10.40;99.90;;;;;;5043052;28;20024;-47
2021/10/01 06:45:52;;;;;;;5.57;1.67;;;10.40;99.90;;;;;;5045928;28;20392;-50
2021/10/01 07:21:34;;;;;;;5.55;1.40;;;11.10;99.90;;;;;;5059262;28;20058;-49
2021/10/01 07:34:27;;;;;;;4.00;1.30;;;11.50;99.90;;;;;;5027182;28;20068;-51
2021/10/01 08:21:26;;;;;;;2.80;1.10;;;13.80;99.90;;;;;;5066759;28;20051;-47
2021/10/01 08:23:56;;;;;;;5.43;1.67;;;13.70;99.90;;;;;;5067185;28;20120;-47
2021/10/01 08:26:22;;;;;;;4.18;1.52;;;13.70;99.90;;;;;;5066969;28;20390;-46
2021/10/01 08:28:47;;;;;;;3.30;1.45;;;14.00;99.90;;;;;;5066605;28;20031;-46
2021/10/01 08:31:13;;;;;;;3.13;1.30;;;14.30;99.70;;;;;;5060417;28;20013;-49
2021/10/01 08:33:39;;;;;;;3.42;1.35;;;14.90;97.90;;;;;;5067031;28;20025;-46
2021/10/01 08:36:04;;;;;;;5.47;1.20;;;15.70;96.00;;;;;;5064416;28;20016;-47
2021/10/01 08:38:30;;;;;;;3.08;1.40;;;16.80;93.70;;;;;;5069773;28;20020;-47
2021/10/01 08:40:56;;;;;;;2.40;1.10;;;17.40;92.30;;;;;;5070441;28;20498;-46
2021/10/01 08:43:24;;;;;;;4.47;1.08;;;18.40;90.90;;;;;;5070981;28;20021;-48
2021/10/01 08:45:50;;;;;;;5.78;1.17;;;19.50;86.30;;;;;;5070636;28;20042;-45
2021/10/01 08:48:17;;;;;;;3.65;1.40;;;21.50;79.20;;;;;;5053621;28;20036;-45
2021/10/01 08:50:42;;;;;;;5.97;1.73;;;22.00;72.80;;;;;;5067192;28;20521;-46
2021/10/01 08:53:09;;;;;;;2.80;1.00;;;22.00;68.90;;;;;;5065995;28;20154;-46
2021/10/01 08:55:36;;;;;;;2.97;1.20;;;22.80;68.80;;;;;;5069078;28;20021;-46
2021/10/01 08:58:02;;;;;;;2.28;1.17;;;23.80;62.80;;;;;;5059031;28;20044;-46
2021/10/01 09:00:27;;;;;;;5.22;1.10;;;24.90;60.30;;;;;;5061216;28;20032;-45
2021/10/01 09:02:53;;;;;;;3.50;1.13;;;25.50;56.90;;;;;;5070057;28;20531;-46
2021/10/01 09:05:19;;;;;;;8.98;1.70;;;24.70;57.50;;;;;;5069926;28;20016;-46
2021/10/01 09:07:44;;;;;;;6.97;1.35;;;24.10;56.50;;;;;;5057883;28;20097;-46
2021/10/01 09:10:12;;;;;;;3.88;1.38;;;22.90;59.70;;;;;;5050403;28;20021;-47
2021/10/01 09:12:38;;;;;;;3.90;1.40;;;22.30;61.30;;;;;;5069617;28;20040;-46
2021/10/01 09:15:05;;;;;;;3.13;1.20;;;22.10;62.20;;;;;;5070048;28;20039;-46
2021/10/01 09:17:33;;;;;;;4.28;0.98;;;22.10;62.50;;;;;;5068014;28;20089;-46
2021/10/01 09:20:00;;;;;;;5.82;1.15;;;22.00;61.10;;;;;;5069928;28;20176;-46
2021/10/01 09:22:27;;;;;;;3.28;1.23;;;21.80;62.30;;;;;;5068174;28;20497;-47
2021/10/01 09:25:06;;;;;;;3.83;1.30;;;23.10;62.00;;;;;;5069467;28;20032;-46
2021/10/01 09:27:37;;;;;;;5.38;1.40;;;24.10;58.20;;;;;;5060378;28;20104;-48
2021/10/01 09:30:04;;;;;;;2.67;1.08;;;24.30;55.90;;;;;;5059893;28;20536;-48
2021/10/01 09:32:29;;;;;;;1.75;1.20;;;24.50;56.40;;;;;;5067938;28;20042;-46
2021/10/01 09:34:55;;;;;;;5.57;1.05;;;24.40;55.10;;;;;;5069704;28;20032;-49
2021/10/01 09:37:32;;;;;;;3.30;1.17;;;25.10;52.90;;;;;;5068808;28;20036;-46
2021/10/01 09:40:01;;;;;;;1.70;1.10;;;23.90;52.60;;;;;;5069429;28;20542;-47
2021/10/01 09:42:33;;;;;;;5.57;1.40;;;23.80;53.80;;;;;;5069062;28;20024;-49
2021/10/01 09:45:05;;;;;;;2.08;0.93;;;23.70;53.40;;;;;;5069294;28;20040;-48
2021/10/01 09:47:33;;;;;;;2.97;1.15;;;24.30;51.90;;;;;;5068737;28;20457;-49
2021/10/01 09:50:27;;;;;;;3.33;1.00;;;25.20;50.70;;;;;;5053300;28;20024;-47
2021/10/01 09:52:55;;;;;;;1.60;0.80;;;25.00;50.40;;;;;;5066848;28;20150;-46
2021/10/01 09:55:35;;;;;;;4.78;1.48;;;26.70;50.00;;;;;;5069675;28;20036;-47
2021/10/01 09:58:11;;;;;;;2.10;1.02;;;27.20;46.50;;;;;;5054135;28;20426;-47
2021/10/01 10:00:53;;;;;;;5.63;1.42;;;26.90;46.40;;;;;;5065273;28;20088;-48
2021/10/01 10:03:22;;;;;;;2.80;1.30;;;26.50;47.60;;;;;;5054378;28;20016;-49
2021/10/01 10:06:02;;;;;;;6.35;1.50;;;26.60;46.10;;;;;;5067074;28;20036;-46
2021/10/01 10:08:36;;;;;;;2.25;1.00;;;25.40;48.80;;;;;;5059029;28;20418;-47
2021/10/01 10:11:11;;;;;;;3.97;1.15;;;26.20;48.40;;;;;;5059628;28;20028;-47
2021/10/01 10:13:39;;;;;;;2.08;1.00;;;26.50;46.60;;;;;;5069262;28;20397;-50
2021/10/01 10:16:14;;;;;;;4.55;0.98;;;27.50;47.20;;;;;;5069436;28;20048;-46
2021/10/01 10:18:39;;;;;;;2.45;0.90;;;28.10;46.50;;;;;;5068510;28;20509;-46
2021/10/01 10:21:05;;;;;;;4.97;1.25;;;27.40;45.10;;;;;;5069111;28;20028;-50
2021/10/01 10:23:30;;;;;;;2.03;1.23;;;27.40;47.30;;;;;;5035787;28;20025;-47
2021/10/01 10:25:56;;;;;;;2.30;1.02;;;27.30;44.70;;;;;;5029462;28;20029;-46
2021/10/01 10:28:22;;;;;;;3.80;1.00;;;27.30;44.70;;;;;;5028876;28;20103;-46
2021/10/01 10:30:52;;;;;;;5.10;1.23;;;26.60;44.90;;;;;;5029309;28;20040;-47
2021/10/01 10:33:42;;;;;;;3.90;1.50;;;24.60;46.60;;;;;;5050065;28;20044;-45
2021/10/01 10:36:28;;;;;;;3.45;1.50;;;23.80;50.40;;;;;;5036148;28;20392;-47
2021/10/01 10:39:16;;;;;;;3.22;1.00;;;23.80;51.70;;;;;;5043987;28;20078;-46
2021/10/01 10:41:45;;;;;;;3.88;1.13;;;22.40;52.60;;;;;;5040729;28;20466;-48
2021/10/01 10:44:12;;;;;;;1.58;1.02;;;21.80;55.00;;;;;;5049127;28;20112;-47
2021/10/01 10:46:38;;;;;;;3.30;1.23;;;21.10;55.10;;;;;;5045636;28;20541;-46
2021/10/01 10:49:20;;;;;;;5.80;1.25;;;20.40;55.70;;;;;;5059688;28;20103;-46
2021/10/01 10:51:57;;;;;;;2.35;1.10;;;20.00;57.60;;;;;;5069309;28;20047;-47
2021/10/01 10:54:24;;;;;;;2.55;1.02;;;19.50;60.40;;;;;;5069589;28;20534;-46
2021/10/01 10:57:16;;;;;;;4.90;1.30;;;19.00;59.20;;;;;;5067600;28;20060;-47
2021/10/01 10:59:42;;;;;;;9.32;1.27;;;18.80;61.00;;;;;;5050480;28;20171;-47
2021/10/01 11:02:30;;;;;;;2.20;1.08;;;18.70;61.00;;;;;;5043653;28;20064;-46
2021/10/01 11:05:26;;;;;;;4.05;1.20;;;18.80;60.80;;;;;;5045189;28;20495;-47
2021/10/01 11:08:24;;;;;;;3.00;1.10;;;18.90;61.30;;;;;;5041534;28;20167;-45
2021/10/01 11:10:50;;;;;;;3.42;1.58;;;19.20;61.80;;;;;;5027596;28;20180;-46
2021/10/01 11:13:19;;;;;;;3.08;1.60;;;19.30;60.20;;;;;;5033837;28;20029;-45
2021/10/01 11:16:07;;;;;;;4.53;1.13;;;19.70;60.50;;;;;;5037994;28;20036;-46
2021/10/01 11:18:33;;;;;;;3.00;1.02;;;19.80;59.60;;;;;;5040722;28;20117;-46
2021/10/01 11:20:59;;;;;;;3.65;1.83;;;19.40;59.50;;;;;;5040921;28;20036;-46
2021/10/01 11:23:25;;;;;;;2.45;1.20;;;19.40;59.60;;;;;;5038056;28;20029;-46
2021/10/01 11:25:51;;;;;;;2.58;1.00;;;19.80;60.60;;;;;;5038377;28;20025;-48
2021/10/01 11:28:18;;;;;;;5.07;1.20;;;20.10;58.50;;;;;;5039497;28;20474;-45
2021/10/01 11:30:52;;;;;;;7.90;1.25;;;20.20;59.30;;;;;;5044470;28;20028;-46
2021/10/01 11:33:19;;;;;;;4.72;1.27;;;20.40;59.00;;;;;;5035566;28;20033;-47
2021/10/01 11:35:52;;;;;;;1.73;0.88;;;20.50;57.70;;;;;;5029628;28;20025;-46
2021/10/01 11:38:27;;;;;;;2.88;0.82;;;21.10;58.20;;;;;;5028920;28;20788;-49
2021/10/01 11:41:05;;;;;;;2.70;1.45;;;21.10;56.20;;;;;;5029758;28;20025;-47
2021/10/01 11:43:31;;;;;;;4.50;1.00;;;21.20;55.60;;;;;;5029382;28;20033;-47
2021/10/01 11:45:57;;;;;;;2.33;0.90;;;21.60;53.30;;;;;;5029710;28;20025;-50
2021/10/01 11:48:33;;;;;;;1.95;1.15;;;22.50;54.40;;;;;;5028775;28;20028;-47
2021/10/01 11:50:58;;;;;;;3.20;1.05;;;22.90;51.50;;;;;;5058623;28;20025;-48
2021/10/01 11:53:30;;;;;;;5.88;1.33;;;24.00;50.80;;;;;;5069676;28;20035;-49
2021/10/01 11:56:03;;;;;;;3.30;1.27;;;25.50;47.40;;;;;;5068271;28;20043;-49
2021/10/01 11:58:31;;;;;;;2.83;1.13;;;26.00;46.10;;;;;;5069155;28;20616;-50
2021/10/01 12:01:12;;;;;;;1.25;1.08;;;26.80;46.70;;;;;;5069613;28;20029;-48
2021/10/01 12:03:57;;;;;;;2.08;0.88;;;27.90;45.50;;;;;;5052992;28;20021;-48
2021/10/01 12:06:36;;;;;;;2.15;0.95;;;28.40;43.30;;;;;;5033119;28;20018;-46
2021/10/01 12:09:05;;;;;;;1.83;1.00;;;29.50;41.70;;;;;;5051542;28;20059;-47
2021/10/01 12:11:41;;;;;;;1.40;0.90;;;30.10;41.80;;;;;;5048121;28;20026;-49
2021/10/01 12:14:14;;;;;;;2.60;1.08;;;29.10;40.00;;;;;;5043411;28;20033;-48
2021/10/01 12:16:41;;;;;;;4.13;0.77;;;27.90;40.20;;;;;;5041282;28;20075;-46
2021/10/01 12:19:08;;;;;;;2.88;1.30;;;28.30;41.50;;;;;;5044159;28;20048;-49
2021/10/01 12:21:35;;;;;;;3.35;0.82;;;28.30;39.10;;;;;;5045842;28;20021;-47
2021/10/01 12:24:09;;;;;;;1.48;0.93;;;28.50;40.30;;;;;;5052845;28;20017;-49
2021/10/01 12:26:38;;;;;;;3.35;1.23;;;28.10;39.70;;;;;;5052671;28;20233;-49
2021/10/01 12:29:05;;;;;;;3.80;1.05;;;28.10;41.90;;;;;;5052589;28;20392;-47
2021/10/01 12:31:43;;;;;;;3.08;0.80;;;28.40;40.00;;;;;;5052502;28;20689;-48
2021/10/01 12:34:31;;;;;;;1.98;1.00;;;27.80;41.70;;;;;;5052741;28;20490;-47
2021/10/01 12:37:06;;;;;;;2.85;0.98;;;28.10;41.20;;;;;;5052082;28;20525;-47
2021/10/01 12:39:34;;;;;;;3.00;1.00;;;28.10;40.70;;;;;;5052477;28;20477;-48
2021/10/01 12:42:04;;;;;;;3.03;1.42;;;27.90;39.70;;;;;;5051365;28;20507;-47
2021/10/01 12:44:33;;;;;;;3.38;0.95;;;27.40;40.80;;;;;;5052534;28;20586;-46
2021/10/01 12:47:13;;;;;;;2.45;0.82;;;27.20;38.70;;;;;;5045895;28;20025;-47
2021/10/01 12:49:39;;;;;;;5.43;0.88;;;26.90;37.80;;;;;;5059615;28;20059;-48
2021/10/01 12:52:11;;;;;;;2.60;0.77;;;27.00;37.40;;;;;;5062560;28;20064;-46
2021/10/01 12:54:59;;;;;;;1.63;1.00;;;26.10;37.80;;;;;;5070930;28;20024;-47
2021/10/01 12:57:32;;;;;;;1.50;0.82;;;25.60;39.60;;;;;;5044948;28;20033;-46
2021/10/01 13:00:01;;;;;;;3.38;1.00;;;25.00;40.80;;;;;;5048877;28;20052;-47
2021/10/01 13:02:47;;;;;;;3.47;0.90;;;25.20;41.60;;;;;;5049872;28;20029;-47
2021/10/01 13:05:21;;;;;;;2.65;0.90;;;25.00;41.70;;;;;;5050689;28;20020;-49
2021/10/01 13:07:50;;;;;;;2.28;1.00;;;24.60;42.50;;;;;;5052433;28;20031;-47
2021/10/01 13:10:17;;;;;;;1.13;0.80;;;24.60;41.10;;;;;;5064812;28;20023;-46
2021/10/01 13:13:03;;;;;;;2.08;0.90;;;24.60;41.10;;;;;;5064834;28;20446;-46
2021/10/01 13:15:49;;;;;;;4.60;1.00;;;24.40;42.80;;;;;;5052742;28;20513;-48
2021/10/01 13:18:20;;;;;;;1.73;0.68;;;24.40;41.00;;;;;;5049802;28;20025;-47
2021/10/01 13:21:04;;;;;;;;;;;24.50;41.20;;;;;;5050581;28;20108;-47
2021/10/01 13:23:45;;;;;;;2.35;0.70;;;24.50;40.00;;;;;;5050733;28;20354;-47
2021/10/01 13:26:15;;;;;;;2.90;0.70;;;24.20;40.00;;;;;;5050753;28;20467;-49
2021/10/01 13:28:43;;;;;;;3.17;1.35;;;24.00;41.40;;;;;;5036597;28;20025;-47
2021/10/01 13:31:09;;;;;;;1.38;0.82;;;24.30;41.00;;;;;;5053761;28;20037;-46
2021/10/01 13:33:34;;;;;;;2.78;1.10;;;24.10;41.30;;;;;;5070268;28;20052;-47
2021/10/01 13:36:00;;;;;;;3.97;1.35;;;24.30;42.10;;;;;;5070370;28;20068;-47
2021/10/01 13:38:27;;;;;;;4.32;0.98;;;23.90;42.30;;;;;;5069582;28;20444;-47
2021/10/01 13:40:53;;;;;;;1.70;0.77;;;24.30;43.00;;;;;;5069998;28;20025;-46
2021/10/01 13:43:19;;;;;;;2.00;1.00;;;24.20;42.20;;;;;;5069896;28;20136;-46
2021/10/01 13:45:44;;;;;;;1.30;0.88;;;24.20;42.50;;;;;;5069753;28;20120;-47
2021/10/01 13:48:12;;;;;;;4.25;1.27;;;24.40;42.50;;;;;;5057595;28;20020;-46
2021/10/01 13:50:38;;;;;;;2.13;1.30;;;24.40;42.50;;;;;;5053696;28;20078;-47
2021/10/01 13:53:03;;;;;;;1.70;1.00;;;24.50;43.80;;;;;;5060129;28;20427;-47
2021/10/01 13:55:29;;;;;;;3.45;0.82;;;24.50;42.60;;;;;;5070253;28;20260;-46
2021/10/01 13:57:54;;;;;;;2.22;1.00;;;24.80;43.10;;;;;;5069315;28;20024;-46
2021/10/01 14:00:20;;;;;;;2.47;0.82;;;24.90;42.60;;;;;;5069895;28;20040;-48
2021/10/01 14:02:46;;;;;;;1.50;0.82;;;24.90;43.10;;;;;;5069866;28;20417;-48
2021/10/01 14:05:13;;;;;;;2.22;0.77;;;25.00;41.50;;;;;;5069314;28;20113;-48
2021/10/01 14:07:39;;;;;;;3.10;0.70;;;24.80;42.60;;;;;;5062518;28;20583;-47
2021/10/01 14:10:21;;;;;;;3.53;0.80;;;24.20;42.50;;;;;;5060091;28;20043;-47
2021/10/01 14:12:48;;;;;;;3.13;1.20;;;24.40;44.10;;;;;;5069484;28;20393;-47
2021/10/01 14:15:16;;;;;;;0.90;0.80;;;24.30;43.30;;;;;;5050085;28;20119;-47
2021/10/01 14:17:42;;;;;;;2.50;0.80;;;24.30;43.20;;;;;;5065069;28;20023;-49
2021/10/01 14:20:09;;;;;;;3.38;1.02;;;23.90;43.30;;;;;;5069029;28;20405;-48
2021/10/01 14:22:36;;;;;;;2.80;0.88;;;23.70;43.80;;;;;;5069307;28;20433;-46
2021/10/01 14:25:04;;;;;;;1.38;0.90;;;23.50;43.60;;;;;;5069376;28;20028;-46
2021/10/01 14:27:29;;;;;;;2.00;1.15;;;23.20;44.10;;;;;;5068047;28;20020;-46
2021/10/01 14:29:56;;;;;;;1.08;0.88;;;23.00;45.20;;;;;;5067874;28;20493;-47
2021/10/01 14:32:23;;;;;;;3.85;1.00;;;22.60;45.40;;;;;;5069207;28;20028;-48